createdAt,value
2022-07-27T00:03:42.452Z,98.70
2022-07-27T00:07:45.292Z,98.60
2022-07-27T00:11:49.464Z,98.50
2022-07-27T00:15:52.707Z,98.40
2022-07-27T00:19:55.552Z,98.50
2022-07-27T00:23:58.594Z,98.30
2022-07-27T00:28:03.024Z,98.40
2022-07-27T00:32:09.576Z,98.40
2022-07-27T00:36:15.378Z,98.40
2022-07-27T00:40:18.220Z,98.80
2022-07-27T00:44:27.736Z,98.70
2022-07-27T00:48:30.612Z,98.70
2022-07-27T00:52:33.555Z,98.20
2022-07-27T00:56:36.691Z,98.30
2022-07-27T01:00:41.024Z,98.40
2022-07-27T01:04:43.853Z,98.30
2022-07-27T01:08:50.152Z,98.20
2022-07-27T01:12:52.977Z,98.50
2022-07-27T01:16:57.188Z,98.50
2022-07-27T01:21:01.236Z,98.70
2022-07-27T01:25:05.807Z,98.90
2022-07-27T01:29:09.028Z,98.70
2022-07-27T01:33:12.320Z,98.70
2022-07-27T01:41:19.603Z,99.40
2022-07-27T01:45:22.809Z,99.90
2022-07-27T01:49:25.820Z,99.90
2022-07-27T01:53:28.705Z,99.90
2022-07-27T01:57:32.883Z,99.90
2022-07-27T02:01:35.782Z,99.90
2022-07-27T02:05:39.553Z,99.90
2022-07-27T02:09:42.429Z,99.90
2022-07-27T02:13:47.565Z,99.90
2022-07-27T02:17:50.450Z,99.90
2022-07-27T02:21:53.298Z,99.90
2022-07-27T02:25:56.267Z,99.90
2022-07-27T02:30:00.624Z,99.90
2022-07-27T02:34:03.600Z,99.90
2022-07-27T02:38:06.440Z,99.70
2022-07-27T02:42:09.351Z,99.50
2022-07-27T02:46:13.882Z,99.60
2022-07-27T02:50:16.780Z,99.70
2022-07-27T02:54:19.721Z,99.50
2022-07-27T02:58:22.604Z,99.30
2022-07-27T03:02:27.010Z,99.90
2022-07-27T03:06:29.911Z,99.40
2022-07-27T03:10:33.139Z,99.30
2022-07-27T03:14:35.982Z,99.30
2022-07-27T03:18:40.185Z,99.40
2022-07-27T03:22:43.060Z,99.60
2022-07-27T03:26:46.834Z,99.20
2022-07-27T03:30:49.711Z,99.70
2022-07-27T03:34:55.705Z,99.20
2022-07-27T03:39:00.748Z,99.10
2022-07-27T03:43:07.162Z,99.10
2022-07-27T03:47:10.022Z,99.30
2022-07-27T03:51:14.624Z,99.20
2022-07-27T03:55:17.530Z,99.90
2022-07-27T03:59:20.539Z,99.90
2022-07-27T04:03:23.394Z,99.90
2022-07-27T04:07:27.578Z,99.50
2022-07-27T04:11:30.420Z,99.40
2022-07-27T04:15:33.277Z,99.60
2022-07-27T04:19:36.100Z,99.70
2022-07-27T04:23:40.342Z,99.60
2022-07-27T04:27:43.194Z,99.50
2022-07-27T04:31:46.045Z,99.40
2022-07-27T04:35:49.077Z,99.60
2022-07-27T04:39:57.345Z,99.40
2022-07-27T04:44:00.399Z,99.30
2022-07-27T04:48:06.503Z,99.50
2022-07-27T04:52:09.364Z,99.30
2022-07-27T04:56:13.566Z,99.10
2022-07-27T05:00:17.363Z,99.90
2022-07-27T05:04:20.220Z,99.30
2022-07-27T05:08:23.123Z,99.30
2022-07-27T05:12:27.303Z,99.70
2022-07-27T05:16:30.162Z,99.90
2022-07-27T05:20:33.218Z,99.90
2022-07-27T05:24:36.115Z,99.90
2022-07-27T05:28:40.308Z,99.90
2022-07-27T05:32:43.207Z,99.90
2022-07-27T05:36:46.061Z,99.90
2022-07-27T05:40:49.094Z,99.90
2022-07-27T05:44:56.104Z,99.90
2022-07-27T05:48:58.994Z,99.90
2022-07-27T05:53:01.806Z,99.90
2022-07-27T05:57:04.739Z,99.90
2022-07-27T06:05:15.844Z,99.90
2022-07-27T06:09:20.027Z,99.90
2022-07-27T06:13:28.056Z,99.90
2022-07-27T06:17:31.289Z,99.90
2022-07-27T06:21:35.468Z,99.90
2022-07-27T06:25:38.482Z,99.90
2022-07-27T06:29:41.382Z,99.90
2022-07-27T06:33:45.343Z,99.90
2022-07-27T06:37:53.120Z,99.90
2022-07-27T06:41:58.222Z,99.90
2022-07-27T06:46:03.245Z,99.90
2022-07-27T06:50:06.677Z,99.90
2022-07-27T06:54:11.381Z,99.90
2022-07-27T06:58:14.276Z,99.90
2022-07-27T07:02:17.215Z,99.90
2022-07-27T07:06:20.034Z,99.90
2022-07-27T07:10:25.010Z,99.90
2022-07-27T07:14:27.841Z,99.90
2022-07-27T07:18:30.656Z,99.90
2022-07-27T20:25:44.953Z,92.40
2022-07-27T20:29:47.892Z,93.00
2022-07-27T20:33:50.687Z,93.00
2022-07-27T20:37:53.554Z,92.90
2022-07-27T20:41:59.403Z,93.00
2022-07-27T20:46:02.353Z,92.70
2022-07-27T20:50:06.152Z,92.80
2022-07-27T20:54:08.979Z,92.80
2022-07-27T20:58:13.254Z,92.70
2022-07-27T21:02:16.240Z,93.50
2022-07-27T21:06:19.082Z,93.20
2022-07-27T21:10:22.339Z,93.00
2022-07-27T21:14:26.618Z,92.90
2022-07-27T21:18:29.488Z,92.90
2022-07-27T21:22:32.414Z,92.90
2022-07-27T21:26:35.311Z,92.70
2022-07-27T21:30:40.917Z,92.80
2022-07-27T21:34:43.805Z,92.80
2022-07-27T21:38:46.649Z,92.70
2022-07-27T21:42:50.216Z,92.90
2022-07-27T21:46:54.667Z,93.00
2022-07-27T21:50:57.495Z,93.20
2022-07-27T21:55:00.397Z,93.00
2022-07-27T21:59:03.274Z,93.20
2022-07-27T22:03:07.507Z,93.00
2022-07-27T22:07:19.378Z,93.00
2022-07-27T22:11:22.760Z,92.80
2022-07-27T22:15:25.710Z,92.90
2022-07-27T22:19:29.896Z,92.90
2022-07-27T22:23:32.805Z,99.90
2022-07-27T22:27:35.642Z,93.10
2022-07-27T22:31:38.561Z,93.20
2022-07-27T22:35:43.883Z,93.20
2022-07-27T22:39:46.805Z,93.20
2022-07-27T22:43:49.661Z,93.20
2022-07-27T22:47:53.503Z,93.50
2022-07-27T22:51:57.840Z,98.70
2022-07-27T22:56:00.874Z,98.00
2022-07-27T23:00:04.804Z,99.80
2022-07-27T23:04:07.713Z,97.60
2022-07-27T23:08:11.937Z,99.30
2022-07-27T23:12:14.794Z,99.90
2022-07-27T23:48:50.391Z,93.50
2022-07-27T23:52:53.342Z,93.70
2022-07-27T23:56:56.174Z,94.10
